createdAt,value
2022-11-09T00:28:20.003Z,1011.49
2022-11-09T00:58:20.094Z,1011.46
2022-11-09T01:28:20.018Z,1011.27
2022-11-09T01:58:20.011Z,1011.14
2022-11-09T02:28:20.018Z,1011.01
2022-11-09T02:58:20.014Z,1011.26
2022-11-09T03:28:20.024Z,1011.44
2022-11-09T03:58:20.029Z,1011.55
2022-11-09T04:28:20.032Z,1011.75
2022-11-09T04:58:24.832Z,1011.68
2022-11-09T05:28:20.034Z,1012.1
2022-11-09T05:58:20.033Z,1012.64
2022-11-09T06:28:20.037Z,1012.36
2022-11-09T06:58:20.073Z,1012.59
2022-11-09T07:28:20.049Z,1012.78
2022-11-09T07:58:20.066Z,1012.95
2022-11-09T08:28:20.426Z,1013.19
2022-11-09T08:58:20.407Z,1013.32
2022-11-09T09:28:20.390Z,1013.68
2022-11-09T09:58:20.409Z,1013.46
2022-11-09T10:28:20.456Z,1013.17
2022-11-09T10:58:20.355Z,1013.03
2022-11-09T11:28:20.115Z,1012.63
2022-11-09T11:58:20.081Z,1012.43
2022-11-09T12:28:20.087Z,1012.13
2022-11-09T12:58:20.391Z,1012
2022-11-09T13:28:20.107Z,1012
2022-11-09T13:58:20.304Z,1012.26
2022-11-09T14:28:20.403Z,1012.45
2022-11-09T14:58:20.425Z,1012.59
2022-11-09T15:28:20.597Z,1012.8
2022-11-09T15:58:20.521Z,1012.88
2022-11-09T16:28:20.425Z,1013.13
2022-11-09T16:58:20.513Z,1013.44
2022-11-09T17:28:20.458Z,1013.68
2022-11-09T17:58:20.514Z,1013.9
2022-11-09T18:28:20.608Z,1014.35
2022-11-09T18:58:20.645Z,1014.62
2022-11-09T19:28:20.515Z,1014.67
2022-11-09T19:58:20.579Z,1014.92
2022-11-09T20:28:20.662Z,1015.22
2022-11-09T20:58:20.544Z,1015.56
2022-11-09T21:28:20.571Z,1015.87
2022-11-09T21:58:20.173Z,1016.21
2022-11-09T22:28:20.188Z,1016.37
2022-11-09T22:58:20.185Z,1016.58
2022-11-09T23:28:20.187Z,1017.16
2022-11-09T23:58:20.186Z,1017.51
